This is the latest recevied weather packets stored in our database for station/object F1ZFG-13. If no packets are shown the sender has not sent any weather packets the latest 10 day(s).
| Time | Temp. | Humidity | Pressure | Rain* | Wind** | Luminosity | Snow |
|---|---|---|---|---|---|---|---|
| 1787682654 | 23.89° C | 68% | 1011.8 hPa | 0 mm | - | - | - |
| 1787679266 | 25.56° C | 56% | 1011.1 hPa | 0 mm | - | - | - |
| 1787675715 | -17.78° C | 100% | 0 hPa | 0 mm | - | - | - |
| 1787673881 | -17.78° C | 100% | 0 hPa | 0 mm | - | - | - |
| 1787673709 | -17.78° C | 100% | 0 hPa | 0 mm | - | - | - |
| 1787670687 | 26.11° C | 52% | 1011.4 hPa | 0 mm | - | - | - |
| 1787667702 | 25.56° C | 53% | 1011.9 hPa | 0 mm | - | - | - |
| 1787664412 | 25° C | 55% | 1012.4 hPa | 0 mm | - | - | - |
| 1787661462 | 25° C | 50% | 1012.6 hPa | 0 mm | - | - | - |
| 1787658449 | 24.44° C | 55% | 1012.8 hPa | 0 mm | - | - | - |
| 1787654999 | 22.78° C | 66% | 1013.1 hPa | 0 mm | - | - | - |
| 1787651742 | 20.56° C | 77% | 1013.1 hPa | 0 mm | - | - | - |
| 1787648539 | 20.56° C | 77% | 1013.1 hPa | 0 mm | - | - | - |
| 1787645654 | 18.89° C | 85% | 1012.9 hPa | 0 mm | - | - | - |
| 1787642237 | 17.22° C | 91% | 1012.4 hPa | 0 mm | - | - | - |
| 1787639148 | 16.67° C | 96% | 1012.1 hPa | 0 mm | - | - | - |
| 1787636280 | 15.56° C | 98% | 1011.3 hPa | 0 mm | - | - | - |
| 1787633233 | 16.11° C | 97% | 1011.2 hPa | 0 mm | - | - | - |
| 1787629865 | 16.11° C | 97% | 1011.1 hPa | 0 mm | - | - | - |
| 1787626872 | 16.11° C | 97% | 1011.1 hPa | 0 mm | - | - | - |
| 1787623394 | 16.67° C | 97% | 1010.9 hPa | 0 mm | - | - | - |
| 1787619847 | 16.67° C | 96% | 1011.2 hPa | 0 mm | - | - | - |
| 1787616862 | 16.67° C | 96% | 1011.5 hPa | 0 mm | - | - | - |
| 1787613952 | 17.22° C | 96% | 1011.5 hPa | 0 mm | - | - | - |
| 1787610607 | 18.33° C | 93% | 1011.8 hPa | 0 mm | - | - | - |
* Rain latest hour (hover to see other rain measurements)
** Current wind speed in m/s (hover to see current wind gust speed)